Time;durP1;ratioP1;P1;durP2;ratioP2;P2;SDS_P1;SDS_P2;PMS_P1;PMS_P2;Temp;Humidity;BMP_temperature;BMP_pressure;BME280_temperature;BME280_humidity;BME280_pressure;Samples;Min_cycle;Max_cycle;Signal;HPM_P1;HPM_P2
2022/01/22 00:02:20;;;;;;;32.70;3.10;;;6.20;99.90;;;;;;5063191;28;20037;-68
2022/01/22 00:04:46;;;;;;;26.70;3.45;;;6.10;99.90;;;;;;5068212;28;20055;-72
2022/01/22 00:07:12;;;;;;;28.20;2.92;;;6.20;99.90;;;;;;5089728;28;20605;-73
2022/01/22 00:09:40;;;;;;;27.02;4.80;;;6.20;99.90;;;;;;5066714;28;20498;-70
2022/01/22 00:12:10;;;;;;;24.48;3.03;;;6.20;99.90;;;;;;5093138;28;20054;-70
2022/01/22 00:14:36;;;;;;;19.20;3.58;;;6.30;99.90;;;;;;5052692;28;20131;-72
2022/01/22 00:17:02;;;;;;;30.02;4.28;;;6.30;99.90;;;;;;5069321;28;20130;-71
2022/01/22 00:19:28;;;;;;;24.80;3.63;;;6.20;99.90;;;;;;5064315;28;20143;-71
2022/01/22 00:21:56;;;;;;;33.58;4.10;;;6.20;99.90;;;;;;5053266;28;20082;-70
2022/01/22 00:24:21;;;;;;;22.48;2.65;;;6.20;99.90;;;;;;5072886;28;20447;-72
2022/01/22 00:26:47;;;;;;;27.85;3.00;;;6.30;99.90;;;;;;5068121;28;20124;-72
2022/01/22 00:29:14;;;;;;;24.92;3.22;;;6.30;99.90;;;;;;5068796;28;20119;-69
2022/01/22 00:31:41;;;;;;;35.70;3.53;;;6.30;99.90;;;;;;5059254;28;20049;-70
2022/01/22 00:34:07;;;;;;;23.80;3.63;;;6.30;99.90;;;;;;5086792;28;20037;-71
2022/01/22 00:36:33;;;;;;;14.50;2.20;;;6.40;99.90;;;;;;5070698;28;20036;-71
2022/01/22 00:38:59;;;;;;;27.50;3.83;;;6.40;99.90;;;;;;5071970;28;20038;-71
2022/01/22 00:41:25;;;;;;;39.17;4.10;;;6.40;99.90;;;;;;5070498;28;20467;-68
2022/01/22 00:43:50;;;;;;;20.35;2.35;;;6.40;99.90;;;;;;5088538;28;20036;-70
2022/01/22 00:46:16;;;;;;;23.13;2.78;;;6.40;99.90;;;;;;5088440;28;20033;-72
2022/01/22 00:48:42;;;;;;;25.35;2.90;;;6.40;99.90;;;;;;5096231;28;20064;-72
2022/01/22 00:51:07;;;;;;;31.73;2.85;;;6.50;99.90;;;;;;5067644;28;20604;-71
2022/01/22 00:53:33;;;;;;;34.42;2.83;;;6.50;99.90;;;;;;5071776;28;20032;-70
2022/01/22 00:55:59;;;;;;;25.88;2.70;;;6.50;99.90;;;;;;5069197;28;20039;-70
2022/01/22 00:58:25;;;;;;;26.52;2.78;;;6.50;99.90;;;;;;5068438;28;20391;-71
2022/01/22 01:00:50;;;;;;;35.95;3.85;;;6.50;99.90;;;;;;5067634;28;20127;-70
2022/01/22 01:03:16;;;;;;;27.50;2.67;;;6.50;99.90;;;;;;5068993;28;20043;-72
2022/01/22 01:05:42;;;;;;;22.42;2.17;;;6.50;99.90;;;;;;5056383;28;20039;-69
2022/01/22 01:08:07;;;;;;;24.65;3.08;;;6.50;99.90;;;;;;5071954;28;20303;-71
2022/01/22 01:10:33;;;;;;;32.00;4.45;;;6.60;99.90;;;;;;5065355;28;20044;-73
2022/01/22 01:12:58;;;;;;;14.30;2.75;;;6.50;99.90;;;;;;5068148;28;20054;-73
2022/01/22 01:15:55;;;;;;;14.68;2.30;;;6.60;99.90;;;;;;5061514;28;20044;-73
2022/01/22 01:32:19;;;;;;;26.58;3.53;;;6.70;99.90;;;;;;5063402;28;20859;-71
2022/01/22 01:34:48;;;;;;;21.20;2.03;;;6.70;99.90;;;;;;5073499;28;20040;-72
2022/01/22 01:37:14;;;;;;;14.75;2.00;;;6.70;99.90;;;;;;5062919;28;20138;-70
2022/01/22 01:39:41;;;;;;;23.08;2.20;;;6.70;99.90;;;;;;5065252;28;20105;-72
2022/01/22 01:42:12;;;;;;;17.23;1.88;;;6.80;99.90;;;;;;5080311;28;20044;-72
2022/01/22 01:44:39;;;;;;;22.27;2.95;;;6.70;99.90;;;;;;5071267;28;20036;-71
2022/01/22 01:47:07;;;;;;;20.13;2.67;;;6.70;99.90;;;;;;5085585;28;20047;-70
2022/01/22 01:49:34;;;;;;;12.85;1.65;;;6.70;99.90;;;;;;5082628;28;20039;-69
2022/01/22 01:52:02;;;;;;;15.40;2.50;;;6.70;99.90;;;;;;5082283;28;20032;-71
2022/01/22 01:59:48;;;;;;;22.00;2.95;;;6.80;99.90;;;;;;5097112;28;20105;-69
2022/01/22 02:02:13;;;;;;;20.52;2.22;;;6.80;99.90;;;;;;5069584;28;20044;-72
2022/01/22 02:04:41;;;;;;;24.15;2.92;;;6.80;99.90;;;;;;5067755;28;20097;-68
2022/01/22 02:07:06;;;;;;;17.60;2.65;;;6.80;99.90;;;;;;5058677;28;20064;-71
2022/01/22 02:09:33;;;;;;;10.45;1.77;;;6.70;99.90;;;;;;5065235;28;20095;-71
2022/01/22 02:12:14;;;;;;;14.88;2.47;;;6.80;99.90;;;;;;5068092;28;20106;-69
2022/01/22 02:25:20;;;;;;;13.88;2.22;;;6.80;99.90;;;;;;5072235;28;20055;-68
2022/01/22 02:27:45;;;;;;;15.25;2.03;;;6.80;99.90;;;;;;5065854;28;20530;-69
2022/01/22 02:30:18;;;;;;;9.57;1.80;;;6.80;99.90;;;;;;5079538;28;20033;-71
2022/01/22 02:37:48;;;;;;;9.18;2.00;;;6.80;99.90;;;;;;5072150;28;20051;-69
2022/01/22 02:40:21;;;;;;;;;;;6.90;99.90;;;;;;5081734;28;20036;-69
2022/01/22 02:42:47;;;;;;;18.23;2.42;;;6.90;99.90;;;;;;5075581;28;20409;-71
2022/01/22 02:45:18;;;;;;;14.73;2.67;;;6.90;99.90;;;;;;5067712;28;20052;-71
2022/01/22 02:47:43;;;;;;;11.48;1.90;;;6.90;99.90;;;;;;5065103;28;20048;-69
2022/01/22 02:50:09;;;;;;;11.90;5.07;;;6.80;99.90;;;;;;5062109;28;20442;-72
2022/01/22 02:52:35;;;;;;;16.90;2.08;;;6.80;99.90;;;;;;5050533;28;20411;-70
2022/01/22 02:55:01;;;;;;;18.70;2.85;;;6.80;99.90;;;;;;5076615;28;20055;-72
2022/01/22 02:57:30;;;;;;;15.25;2.08;;;6.80;99.90;;;;;;5062899;28;20458;-70
2022/01/22 02:59:58;;;;;;;15.40;2.58;;;6.80;99.90;;;;;;5063306;28;20037;-70
2022/01/22 03:02:23;;;;;;;15.27;1.67;;;6.70;99.90;;;;;;5093906;28;20044;-71
2022/01/22 03:04:49;;;;;;;19.08;1.83;;;6.80;99.90;;;;;;5086329;28;20029;-72
2022/01/22 03:07:14;;;;;;;8.90;1.50;;;6.70;99.90;;;;;;5070638;28;20044;-71
2022/01/22 03:09:42;;;;;;;11.07;2.30;;;6.80;99.90;;;;;;5068258;28;20036;-68
2022/01/22 03:17:49;;;;;;;12.40;2.00;;;6.70;99.90;;;;;;5069920;28;20136;-69
2022/01/22 03:28:17;;;;;;;11.02;1.45;;;6.60;99.90;;;;;;5061288;28;20047;-70
2022/01/22 03:30:43;;;;;;;11.05;1.70;;;6.60;99.90;;;;;;5062153;28;20033;-71
2022/01/22 03:33:09;;;;;;;22.67;2.85;;;6.70;99.90;;;;;;5080110;28;20032;-69
2022/01/22 03:35:35;;;;;;;9.88;1.63;;;6.60;99.90;;;;;;5072349;28;20102;-67
2022/01/22 03:38:04;;;;;;;9.63;1.27;;;6.60;99.90;;;;;;5073381;28;20465;-71
2022/01/22 03:40:29;;;;;;;11.57;1.30;;;6.60;99.90;;;;;;5073582;28;20066;-67
2022/01/22 03:42:56;;;;;;;6.07;1.25;;;6.60;99.90;;;;;;5075157;28;20119;-69
2022/01/22 03:45:23;;;;;;;14.40;2.03;;;6.50;99.90;;;;;;5073579;28;20075;-69
2022/01/22 03:47:50;;;;;;;9.45;1.27;;;6.50;99.90;;;;;;5058525;28;20041;-68
2022/01/22 03:50:18;;;;;;;11.80;1.92;;;6.50;99.90;;;;;;5078115;28;20044;-69
2022/01/22 03:52:43;;;;;;;15.10;1.77;;;6.60;99.90;;;;;;5096643;28;20046;-71
2022/01/22 03:55:20;;;;;;;12.70;2.33;;;6.50;99.90;;;;;;5071753;28;20194;-67
2022/01/22 03:57:45;;;;;;;9.90;1.65;;;6.50;99.90;;;;;;5069131;28;20040;-69
2022/01/22 04:00:12;;;;;;;7.32;1.40;;;6.50;99.90;;;;;;5070537;28;20563;-72
2022/01/22 04:03:25;;;;;;;7.18;1.30;;;6.50;99.90;;;;;;5068618;28;20079;-71
2022/01/22 04:05:57;;;;;;;8.32;1.60;;;6.50;99.90;;;;;;5066298;28;20097;-71
2022/01/22 04:08:23;;;;;;;11.93;2.00;;;6.40;99.90;;;;;;5093072;28;20453;-72
2022/01/22 04:10:49;;;;;;;6.85;1.70;;;6.50;99.90;;;;;;5068683;28;20044;-71
2022/01/22 04:13:18;;;;;;;6.85;1.83;;;6.50;99.90;;;;;;5065088;28;20514;-69
2022/01/22 04:15:43;;;;;;;8.38;1.27;;;6.40;99.90;;;;;;5066886;28;20331;-69
2022/01/22 04:28:47;;;;;;;5.82;1.30;;;6.50;99.90;;;;;;5062826;28;20040;-70
2022/01/22 04:31:12;;;;;;;13.48;3.05;;;6.50;99.90;;;;;;5086524;28;20108;-71
2022/01/22 04:33:38;;;;;;;7.07;1.70;;;6.50;99.90;;;;;;5053461;28;20040;-71
2022/01/22 04:36:04;;;;;;;7.38;1.50;;;6.50;99.90;;;;;;5066656;28;20071;-67
2022/01/22 04:38:30;;;;;;;6.45;1.30;;;6.40;99.90;;;;;;5073891;28;20271;-70
2022/01/22 04:40:55;;;;;;;9.02;1.70;;;6.50;99.90;;;;;;5068782;28;20051;-69
2022/01/22 04:43:21;;;;;;;7.53;1.38;;;6.50;99.90;;;;;;5070899;28;20479;-70
2022/01/22 04:46:12;;;;;;;11.45;2.00;;;6.50;99.90;;;;;;5067608;28;20072;-69
2022/01/22 04:48:50;;;;;;;6.78;1.65;;;6.40;99.90;;;;;;5090737;28;20044;-70
2022/01/22 04:56:46;;;;;;;12.82;1.70;;;6.40;99.90;;;;;;5064516;28;20055;-69
2022/01/22 04:59:12;;;;;;;8.45;1.80;;;6.40;99.90;;;;;;5064742;28;21514;-67
2022/01/22 05:01:38;;;;;;;10.05;1.95;;;6.50;99.90;;;;;;5067826;28;20072;-71
2022/01/22 05:04:04;;;;;;;10.52;2.20;;;6.40;99.90;;;;;;5085524;28;20084;-69
2022/01/22 05:06:30;;;;;;;7.10;1.98;;;6.40;99.90;;;;;;5098690;27;20048;-70
2022/01/22 05:08:56;;;;;;;10.43;2.15;;;6.40;99.90;;;;;;5078308;28;20096;-70
2022/01/22 05:11:24;;;;;;;11.20;2.00;;;6.40;99.90;;;;;;5082091;28;20040;-67
2022/01/22 05:13:50;;;;;;;7.90;1.92;;;6.40;99.90;;;;;;5082309;28;20039;-71
2022/01/22 05:16:16;;;;;;;13.10;2.88;;;6.40;99.90;;;;;;5076591;28;20071;-71
2022/01/22 05:19:20;;;;;;;13.65;2.35;;;6.40;99.90;;;;;;5071537;28;20078;-72
2022/01/22 05:21:35;;;;;;;7.97;1.65;;;6.40;99.90;;;;;;5085116;28;20049;-72
2022/01/22 05:24:05;;;;;;;11.65;1.70;;;6.40;99.90;;;;;;5077148;28;20414;-69
2022/01/22 05:29:22;;;;;;;10.45;2.97;;;6.40;99.90;;;;;;5078623;28;20403;-69
2022/01/22 05:36:58;;;;;;;8.85;1.60;;;6.50;99.90;;;;;;5064268;28;20048;-70
2022/01/22 05:39:24;;;;;;;11.82;1.98;;;6.50;99.90;;;;;;5065211;28;20141;-70
2022/01/22 05:41:51;;;;;;;19.50;3.03;;;6.40;99.90;;;;;;5076386;28;20438;-70
2022/01/22 05:44:17;;;;;;;12.30;2.53;;;6.40;99.90;;;;;;5079225;28;20043;-72
2022/01/22 05:46:43;;;;;;;17.95;3.40;;;6.30;99.90;;;;;;5072302;28;20040;-71
2022/01/22 05:49:08;;;;;;;10.77;2.13;;;6.40;99.90;;;;;;5069954;28;20032;-72
2022/01/22 05:51:36;;;;;;;13.07;2.83;;;6.30;99.90;;;;;;5084866;28;20040;-71
2022/01/22 05:59:37;;;;;;;11.13;2.80;;;6.40;99.90;;;;;;5058939;28;20071;-72
2022/01/22 06:02:04;;;;;;;14.33;3.13;;;6.40;99.90;;;;;;5064487;28;20044;-70
2022/01/22 06:04:30;;;;;;;12.48;3.00;;;6.40;99.90;;;;;;5067472;28;20286;-71
2022/01/22 06:06:56;;;;;;;12.10;2.40;;;6.40;99.90;;;;;;5098725;28;20403;-70
2022/01/22 06:09:21;;;;;;;11.10;2.58;;;6.40;99.90;;;;;;5076271;28;20032;-71
2022/01/22 06:14:18;;;;;;;7.70;2.10;;;6.40;99.90;;;;;;5077689;28;20533;-71
2022/01/22 06:16:44;;;;;;;12.82;2.65;;;6.40;99.90;;;;;;5064554;28;20068;-70
2022/01/22 06:19:09;;;;;;;18.92;3.50;;;6.40;99.90;;;;;;5066752;28;20039;-71
2022/01/22 06:21:35;;;;;;;9.05;1.95;;;6.40;99.90;;;;;;5091575;28;20407;-70
2022/01/22 06:24:00;;;;;;;14.95;2.45;;;6.40;99.90;;;;;;5065980;28;20056;-71
2022/01/22 06:26:26;;;;;;;7.43;1.80;;;6.40;99.90;;;;;;5062549;28;20216;-71
2022/01/22 06:28:52;;;;;;;12.55;2.67;;;6.50;99.90;;;;;;5064147;28;20044;-70
2022/01/22 06:31:17;;;;;;;10.20;2.28;;;6.40;99.90;;;;;;5065544;28;20044;-71
2022/01/22 06:33:43;;;;;;;11.45;2.10;;;6.40;99.90;;;;;;5066770;28;20032;-70
2022/01/22 06:36:08;;;;;;;11.93;2.38;;;6.40;99.90;;;;;;5061377;28;20036;-68
2022/01/22 06:38:34;;;;;;;10.07;1.50;;;6.40;99.90;;;;;;5077414;28;20554;-68
2022/01/22 06:43:44;;;;;;;10.95;2.83;;;6.50;99.90;;;;;;5064353;28;20114;-71
2022/01/22 06:46:10;;;;;;;9.82;2.15;;;6.50;99.90;;;;;;5093563;28;20057;-73
2022/01/22 06:48:36;;;;;;;12.18;2.67;;;6.50;99.90;;;;;;5067705;28;20045;-71
2022/01/22 06:51:01;;;;;;;6.88;1.88;;;6.40;99.90;;;;;;5068657;28;20032;-73
2022/01/22 06:53:27;;;;;;;12.57;2.25;;;6.40;99.90;;;;;;5067131;28;20036;-73
2022/01/22 06:56:02;;;;;;;6.65;1.98;;;6.40;99.90;;;;;;5074665;28;20037;-70
2022/01/22 06:58:27;;;;;;;10.27;2.05;;;6.50;99.90;;;;;;5099056;28;20066;-70
2022/01/22 07:00:53;;;;;;;6.85;1.92;;;6.40;99.90;;;;;;5090387;28;20129;-66
2022/01/22 07:03:18;;;;;;;8.20;1.75;;;6.50;99.90;;;;;;5068388;28;20032;-68
2022/01/22 07:05:44;;;;;;;8.10;2.08;;;6.50;99.90;;;;;;5063811;28;20083;-72
2022/01/22 07:08:09;;;;;;;12.18;2.30;;;6.40;99.90;;;;;;5063355;28;20447;-66
2022/01/22 07:10:35;;;;;;;10.38;2.13;;;6.50;99.90;;;;;;5066834;28;20040;-65
2022/01/22 07:13:01;;;;;;;12.27;2.55;;;6.40;99.90;;;;;;5065251;28;20038;-73
2022/01/22 07:15:28;;;;;;;19.73;2.60;;;6.40;99.90;;;;;;5061843;28;20040;-66
2022/01/22 07:17:54;;;;;;;10.88;2.72;;;6.50;99.90;;;;;;5050793;28;20399;-68
2022/01/22 07:20:27;;;;;;;8.23;1.60;;;6.40;99.90;;;;;;5059048;28;20036;-69
2022/01/22 07:23:00;;;;;;;6.03;2.20;;;6.40;99.90;;;;;;5071677;28;20143;-68
2022/01/22 07:25:26;;;;;;;10.10;2.22;;;6.50;99.90;;;;;;5089517;28;20115;-66
2022/01/22 07:27:52;;;;;;;10.93;2.08;;;6.50;99.90;;;;;;5068538;28;20037;-66
2022/01/22 07:30:18;;;;;;;7.20;1.70;;;6.40;99.90;;;;;;5077986;28;20051;-66
2022/01/22 07:32:44;;;;;;;7.07;2.33;;;6.40;99.90;;;;;;5074181;28;20036;-67
2022/01/22 07:35:19;;;;;;;5.63;1.48;;;6.40;99.90;;;;;;5080394;28;20029;-71
2022/01/22 07:37:45;;;;;;;5.57;1.58;;;6.30;99.90;;;;;;5054049;28;20391;-67
2022/01/22 07:40:11;;;;;;;10.32;1.60;;;6.40;99.90;;;;;;5069889;28;20089;-66
2022/01/22 07:42:39;;;;;;;7.82;1.63;;;6.40;99.90;;;;;;5092591;28;20044;-68
2022/01/22 07:45:06;;;;;;;7.03;1.95;;;6.40;99.90;;;;;;5069300;28;20487;-68
2022/01/22 07:47:31;;;;;;;10.43;1.95;;;6.30;99.90;;;;;;5084986;28;20045;-67
2022/01/22 07:49:57;;;;;;;5.80;1.45;;;6.20;99.90;;;;;;5071000;28;20540;-68
2022/01/22 07:52:23;;;;;;;4.70;0.90;;;6.30;99.90;;;;;;5087037;28;20416;-71
2022/01/22 07:54:48;;;;;;;6.28;1.17;;;6.30;99.90;;;;;;5066962;28;20039;-65
2022/01/22 07:57:14;;;;;;;7.43;1.27;;;6.40;99.90;;;;;;5060522;28;20037;-70
2022/01/22 07:59:39;;;;;;;7.85;1.50;;;6.40;99.90;;;;;;5067500;28;20037;-70
2022/01/22 08:02:06;;;;;;;7.70;1.45;;;6.30;99.90;;;;;;5065798;28;20041;-66
2022/01/22 08:04:32;;;;;;;9.95;1.80;;;6.20;99.90;;;;;;5076318;28;20918;-67
2022/01/22 08:07:01;;;;;;;9.57;1.55;;;6.20;99.90;;;;;;5078877;28;20118;-68
2022/01/22 08:09:27;;;;;;;8.30;1.52;;;6.20;99.90;;;;;;5073384;28;20037;-68
2022/01/22 08:11:53;;;;;;;11.48;1.52;;;6.30;99.90;;;;;;5069358;28;20525;-70
2022/01/22 08:14:19;;;;;;;7.63;1.45;;;6.20;99.90;;;;;;5059923;28;20056;-66
2022/01/22 08:16:46;;;;;;;11.45;1.45;;;6.20;99.90;;;;;;5068794;28;20039;-69
2022/01/22 08:19:12;;;;;;;11.88;1.92;;;6.10;99.90;;;;;;5067001;28;20041;-69
2022/01/22 08:21:38;;;;;;;10.52;1.77;;;6.10;99.90;;;;;;5059515;28;20574;-67
2022/01/22 08:24:04;;;;;;;11.57;1.58;;;6.10;99.90;;;;;;5073688;28;20406;-68
2022/01/22 08:26:34;;;;;;;11.50;2.10;;;6.10;99.90;;;;;;5076706;28;20047;-67
2022/01/22 08:29:02;;;;;;;9.02;1.65;;;6.10;99.90;;;;;;5055968;28;20059;-69
2022/01/22 08:36:40;;;;;;;9.52;2.20;;;6.20;99.90;;;;;;5070587;28;20047;-69
2022/01/22 08:39:06;;;;;;;11.98;2.60;;;6.10;99.90;;;;;;5058471;28;20427;-70
2022/01/22 08:41:33;;;;;;;8.70;2.33;;;6.20;99.90;;;;;;5074485;28;20127;-71
2022/01/22 08:44:00;;;;;;;17.85;3.13;;;6.20;99.90;;;;;;5066751;28;20475;-68
2022/01/22 08:46:26;;;;;;;15.25;3.80;;;6.20;99.90;;;;;;5064297;28;20078;-70
2022/01/22 08:48:52;;;;;;;12.27;3.22;;;6.20;99.90;;;;;;5064918;28;20060;-69
2022/01/22 08:51:17;;;;;;;18.85;3.65;;;6.30;99.90;;;;;;5068067;28;20032;-67
2022/01/22 08:53:43;;;;;;;20.35;3.28;;;6.20;99.90;;;;;;5067853;28;20032;-68
2022/01/22 08:56:09;;;;;;;15.90;3.55;;;6.30;99.90;;;;;;5080760;28;20399;-70
2022/01/22 08:58:36;;;;;;;14.10;3.40;;;6.40;99.90;;;;;;5067771;28;20041;-70
2022/01/22 09:01:03;;;;;;;14.75;3.85;;;6.30;99.90;;;;;;5071490;28;20040;-71
2022/01/22 09:03:28;;;;;;;13.43;3.10;;;6.40;99.90;;;;;;5050733;28;20032;-69
2022/01/22 09:05:55;;;;;;;20.15;4.00;;;6.40;99.90;;;;;;5096394;28;20032;-70
2022/01/22 09:08:23;;;;;;;11.85;3.60;;;6.40;99.90;;;;;;5068594;28;20040;-70
2022/01/22 09:10:50;;;;;;;13.52;3.72;;;6.40;99.90;;;;;;5065032;28;20028;-68
2022/01/22 09:13:15;;;;;;;16.15;3.17;;;6.40;99.90;;;;;;5061508;28;20052;-68
2022/01/22 09:15:41;;;;;;;20.25;3.80;;;6.40;99.90;;;;;;5067801;28;20047;-69
2022/01/22 09:18:07;;;;;;;13.77;4.10;;;6.50;99.90;;;;;;5065926;28;20045;-70
2022/01/22 09:23:02;;;;;;;14.07;4.15;;;6.50;99.90;;;;;;5069963;28;20053;-73
2022/01/22 09:25:27;;;;;;;23.02;4.05;;;6.50;99.90;;;;;;5066565;28;20123;-68
2022/01/22 09:27:53;;;;;;;22.88;4.05;;;6.50;99.90;;;;;;5042233;28;20068;-69
2022/01/22 09:30:19;;;;;;;19.58;4.90;;;6.50;99.90;;;;;;5062744;28;20036;-69
2022/01/22 09:32:44;;;;;;;20.75;4.03;;;6.50;99.90;;;;;;5060621;28;20064;-68
2022/01/22 09:35:10;;;;;;;28.95;4.70;;;6.50;99.90;;;;;;5075000;28;20394;-71
2022/01/22 09:37:35;;;;;;;18.88;4.07;;;6.50;99.90;;;;;;5071202;28;20040;-71
2022/01/22 09:40:01;;;;;;;16.50;4.22;;;6.40;99.90;;;;;;5083885;28;20083;-67
2022/01/22 09:42:26;;;;;;;18.92;3.72;;;6.50;99.90;;;;;;5085937;28;20547;-72
2022/01/22 09:44:52;;;;;;;17.38;4.20;;;6.50;99.90;;;;;;5096110;28;20075;-71
2022/01/22 09:47:20;;;;;;;25.65;4.38;;;6.50;99.90;;;;;;5083324;28;20045;-72
2022/01/22 09:49:46;;;;;;;21.35;4.60;;;6.50;99.90;;;;;;5098099;28;20549;-70
2022/01/22 09:52:13;;;;;;;19.75;4.28;;;6.50;99.90;;;;;;5067916;28;20479;-73
2022/01/22 09:54:38;;;;;;;20.80;3.92;;;6.50;99.90;;;;;;5079344;28;20678;-67
2022/01/22 09:57:05;;;;;;;24.20;4.65;;;6.50;99.90;;;;;;5081570;28;20140;-67
2022/01/22 09:59:31;;;;;;;27.40;5.40;;;6.50;99.90;;;;;;5096833;28;20051;-72
2022/01/22 10:02:17;;;;;;;21.20;4.15;;;6.50;99.90;;;;;;5084493;28;20102;-73
2022/01/22 10:04:45;;;;;;;27.33;4.75;;;6.60;99.90;;;;;;5076826;28;20123;-73
2022/01/22 10:07:20;;;;;;;23.75;4.47;;;6.50;99.90;;;;;;5067050;28;20140;-72
2022/01/22 10:09:57;;;;;;;29.05;5.90;;;6.50;99.90;;;;;;5069804;28;20137;-72
2022/01/22 10:12:24;;;;;;;27.30;5.72;;;6.60;99.90;;;;;;5068605;28;20051;-74
2022/01/22 10:15:10;;;;;;;25.67;5.60;;;6.50;99.90;;;;;;5062934;28;20517;-72
2022/01/22 10:17:47;;;;;;;25.15;5.38;;;6.50;99.90;;;;;;5069760;28;20131;-75
2022/01/22 10:20:26;;;;;;;31.27;6.40;;;6.60;99.90;;;;;;5067834;28;20029;-76
2022/01/22 10:22:53;;;;;;;33.03;6.68;;;6.50;99.90;;;;;;5062482;28;20376;-73
2022/01/22 10:25:34;;;;;;;24.80;6.05;;;6.60;99.90;;;;;;5057174;28;20507;-73
2022/01/22 10:28:04;;;;;;;34.75;6.47;;;6.50;99.90;;;;;;5070672;28;20048;-75
2022/01/22 10:30:39;;;;;;;29.33;6.70;;;6.60;99.90;;;;;;5070171;28;20186;-75
2022/01/22 10:33:35;;;;;;;33.33;5.80;;;6.60;99.90;;;;;;5070541;28;20037;-74
2022/01/22 10:36:16;;;;;;;23.13;5.32;;;6.60;99.90;;;;;;5035947;28;20059;-76
2022/01/22 10:38:49;;;;;;;33.63;6.85;;;6.50;99.90;;;;;;5055260;28;20557;-76
2022/01/22 10:41:20;;;;;;;28.85;6.25;;;6.60;99.90;;;;;;5068548;28;20505;-76
2022/01/22 10:43:54;;;;;;;31.77;6.60;;;6.60;99.90;;;;;;5080419;28;20044;-74
2022/01/22 10:46:43;;;;;;;41.88;8.35;;;6.60;99.90;;;;;;5088230;28;20036;-72
2022/01/22 10:49:13;;;;;;;39.80;8.15;;;6.60;99.90;;;;;;5064021;28;20442;-74
2022/01/22 10:51:54;;;;;;;33.65;9.02;;;6.70;99.90;;;;;;5060118;28;20037;-75
2022/01/22 10:54:25;;;;;;;40.78;11.60;;;6.70;99.90;;;;;;5085952;28;20062;-75
2022/01/22 10:56:52;;;;;;;52.30;13.10;;;6.70;99.90;;;;;;5051250;28;20094;-73
2022/01/22 10:59:21;;;;;;;62.90;14.65;;;6.70;99.90;;;;;;5089071;28;20036;-75
2022/01/22 11:01:59;;;;;;;54.17;14.18;;;6.70;99.90;;;;;;5057092;28;20037;-75
2022/01/22 11:04:38;;;;;;;46.33;11.23;;;6.80;99.90;;;;;;5057900;28;20223;-76
2022/01/22 11:07:08;;;;;;;48.47;12.32;;;6.80;99.90;;;;;;5074874;28;20041;-73
2022/01/22 11:09:35;;;;;;;50.28;10.55;;;6.70;99.90;;;;;;5059781;28;20044;-76
2022/01/22 11:12:03;;;;;;;37.03;10.85;;;6.70;99.90;;;;;;5086370;28;20075;-75
2022/01/22 11:14:31;;;;;;;40.05;10.90;;;6.80;99.90;;;;;;5082690;28;20036;-74
2022/01/22 11:16:57;;;;;;;48.35;12.05;;;6.80;99.90;;;;;;5067699;28;20051;-76
2022/01/22 11:19:32;;;;;;;37.78;10.30;;;6.80;99.90;;;;;;5075556;28;20382;-74
2022/01/22 11:22:06;;;;;;;51.22;13.05;;;6.80;99.90;;;;;;5080229;28;20067;-74
2022/01/22 11:24:38;;;;;;;46.33;13.35;;;6.80;99.90;;;;;;5076316;28;20040;-73
2022/01/22 11:27:06;;;;;;;46.45;13.63;;;6.80;99.90;;;;;;5051377;28;20091;-74
2022/01/22 11:29:35;;;;;;;50.80;13.68;;;6.90;99.90;;;;;;5056159;28;20406;-74
2022/01/22 11:32:05;;;;;;;44.33;11.52;;;6.90;99.90;;;;;;5067523;28;20032;-74
2022/01/22 11:34:32;;;;;;;49.65;11.20;;;6.90;99.90;;;;;;5091588;28;20090;-75
2022/01/22 11:37:14;;;;;;;58.85;14.23;;;7.00;99.90;;;;;;5084948;28;20040;-74
2022/01/22 11:39:42;;;;;;;39.47;11.65;;;7.00;99.90;;;;;;5068734;28;20538;-75
2022/01/22 11:42:08;;;;;;;34.60;9.95;;;7.10;99.90;;;;;;5058605;28;20100;-74
2022/01/22 11:44:48;;;;;;;39.63;10.13;;;7.00;99.90;;;;;;5085212;28;20039;-74
2022/01/22 11:47:17;;;;;;;36.15;7.85;;;7.00;99.90;;;;;;5087820;28;20048;-73
2022/01/22 11:50:10;;;;;;;32.05;6.10;;;7.00;99.90;;;;;;5072721;28;20497;-75
2022/01/22 11:52:41;;;;;;;32.35;6.13;;;7.00;99.90;;;;;;5058335;28;20045;-75
2022/01/22 11:55:12;;;;;;;29.45;6.55;;;7.00;99.90;;;;;;5074719;28;20032;-74
2022/01/22 11:57:38;;;;;;;25.65;6.72;;;7.00;99.90;;;;;;5069225;28;20044;-75
2022/01/22 12:00:25;;;;;;;25.73;5.97;;;7.00;99.90;;;;;;5054197;28;20040;-76
2022/01/22 12:03:03;;;;;;;22.23;6.40;;;7.00;99.90;;;;;;5086945;28;20041;-73
2022/01/22 12:05:31;;;;;;;28.75;7.80;;;7.00;99.90;;;;;;5059202;28;20039;-74
2022/01/22 12:08:01;;;;;;;29.25;7.93;;;7.00;99.90;;;;;;5052179;28;20045;-74
2022/01/22 12:10:40;;;;;;;23.25;6.63;;;7.00;99.90;;;;;;5036086;28;20502;-74
2022/01/22 12:16:11;;;;;;;33.88;9.50;;;7.00;99.90;;;;;;5054460;28;20043;-74
2022/01/22 12:18:45;;;;;;;37.75;11.00;;;7.00;99.90;;;;;;5053039;28;20040;-74
2022/01/22 12:23:56;;;;;;;33.03;9.23;;;7.00;99.90;;;;;;5083474;28;20071;-74
2022/01/22 12:26:39;;;;;;;38.47;9.93;;;7.10;99.90;;;;;;5064554;28;20039;-70
2022/01/22 12:29:32;;;;;;;44.92;9.20;;;7.10;99.90;;;;;;5084619;28;20506;-73
2022/01/22 12:32:12;;;;;;;30.60;8.25;;;7.10;99.90;;;;;;5072598;28;20055;-71
2022/01/22 12:34:54;;;;;;;14.18;4.85;;;7.20;99.90;;;;;;5092833;28;20118;-71
2022/01/22 12:37:21;;;;;;;24.20;6.15;;;7.20;99.90;;;;;;5080093;28;20124;-72
2022/01/22 12:39:54;;;;;;;23.85;5.88;;;7.20;99.90;;;;;;5062789;28;20423;-68
2022/01/22 12:42:35;;;;;;;14.40;4.43;;;7.20;99.90;;;;;;5053631;28;20117;-71
2022/01/22 12:45:04;;;;;;;13.35;4.43;;;7.20;99.90;;;;;;5056663;28;20036;-73
2022/01/22 12:47:29;;;;;;;18.20;5.32;;;7.20;99.90;;;;;;5069276;28;20563;-72
2022/01/22 12:50:06;;;;;;;15.57;4.85;;;7.20;99.90;;;;;;5074182;28;20036;-68
2022/01/22 12:52:33;;;;;;;17.67;4.70;;;7.30;99.90;;;;;;5093133;28;20037;-70
2022/01/22 12:55:00;;;;;;;20.70;4.60;;;7.30;99.90;;;;;;5085626;28;20044;-74
2022/01/22 12:57:27;;;;;;;20.50;4.40;;;7.30;99.90;;;;;;5078846;28;20454;-71
2022/01/22 13:02:44;;;;;;;14.43;3.70;;;7.30;99.90;;;;;;5094679;28;20044;-71
2022/01/22 13:05:12;;;;;;;15.30;3.88;;;7.20;99.90;;;;;;5072151;28;20040;-69
2022/01/22 13:07:39;;;;;;;20.27;4.40;;;7.30;99.90;;;;;;5082347;28;20037;-71
2022/01/22 13:10:07;;;;;;;18.00;3.38;;;7.30;99.90;;;;;;5055618;28;20638;-70
2022/01/22 13:12:34;;;;;;;17.58;3.95;;;7.30;99.90;;;;;;5097898;28;20041;-73
2022/01/22 13:15:00;;;;;;;14.35;4.05;;;7.30;99.90;;;;;;5078237;28;20410;-70
2022/01/22 13:17:31;;;;;;;21.13;4.28;;;7.20;99.90;;;;;;5064296;28;20132;-73
2022/01/22 13:19:58;;;;;;;15.20;3.78;;;7.30;99.90;;;;;;5064519;28;20075;-72
2022/01/22 13:22:31;;;;;;;13.45;3.70;;;7.30;99.90;;;;;;5067992;28;20037;-74
2022/01/22 13:25:04;;;;;;;14.02;3.17;;;7.30;99.90;;;;;;5075127;28;20084;-72
2022/01/22 13:27:32;;;;;;;15.18;2.97;;;7.30;99.90;;;;;;5089560;28;20048;-70
2022/01/22 13:29:57;;;;;;;6.85;2.47;;;7.30;99.90;;;;;;5067017;28;20468;-70
2022/01/22 13:32:44;;;;;;;17.02;3.50;;;7.30;99.90;;;;;;5079439;28;20040;-73
2022/01/22 13:49:25;;;;;;;16.33;3.97;;;7.30;99.90;;;;;;5082766;28;20166;-73
2022/01/22 13:51:52;;;;;;;19.57;5.53;;;7.30;99.90;;;;;;5065099;28;20063;-72
2022/01/22 13:54:18;;;;;;;23.42;4.60;;;7.40;99.90;;;;;;5071181;28;20113;-74
2022/01/22 13:56:57;;;;;;;20.48;4.13;;;7.30;99.90;;;;;;5063893;28;20479;-72
2022/01/22 13:59:26;;;;;;;17.92;3.13;;;7.30;99.90;;;;;;5061622;28;20119;-71
2022/01/22 14:02:16;;;;;;;8.85;1.98;;;7.30;99.90;;;;;;5061396;28;20043;-73
2022/01/22 14:04:48;;;;;;;9.05;3.10;;;7.30;99.90;;;;;;5088106;28;20052;-66
2022/01/22 14:07:14;;;;;;;15.98;3.80;;;7.30;99.90;;;;;;5076094;28;20032;-70
2022/01/22 14:10:12;;;;;;;10.45;2.58;;;7.20;99.90;;;;;;5083181;28;20390;-70
2022/01/22 14:12:43;;;;;;;17.95;3.40;;;7.20;99.90;;;;;;5080384;28;20071;-70
2022/01/22 14:15:15;;;;;;;13.77;3.50;;;7.10;99.90;;;;;;5069424;28;20055;-68
2022/01/22 14:20:38;;;;;;;18.63;3.47;;;7.10;99.90;;;;;;5065983;28;20053;-72
2022/01/22 14:23:05;;;;;;;13.15;2.08;;;7.10;99.90;;;;;;5061198;28;20044;-70
2022/01/22 14:25:34;;;;;;;12.93;2.92;;;7.00;99.90;;;;;;5060055;28;20036;-72
2022/01/22 14:28:03;;;;;;;11.45;2.35;;;7.00;99.90;;;;;;5068436;28;20056;-67
2022/01/22 14:30:37;;;;;;;14.05;2.83;;;7.00;99.90;;;;;;5067717;28;20037;-73
2022/01/22 14:33:04;;;;;;;17.80;2.90;;;7.00;99.90;;;;;;5037797;28;20029;-69
2022/01/22 14:35:30;;;;;;;12.88;2.67;;;7.00;99.90;;;;;;5053390;28;20048;-72
2022/01/22 14:37:59;;;;;;;12.25;1.90;;;7.00;99.90;;;;;;5066589;28;20051;-72
2022/01/22 14:45:58;;;;;;;10.25;1.92;;;7.00;99.90;;;;;;5069601;28;20062;-70
2022/01/22 14:48:25;;;;;;;11.45;2.60;;;7.00;99.90;;;;;;5069301;28;20068;-72
2022/01/22 14:50:54;;;;;;;9.82;2.50;;;7.00;99.90;;;;;;5068878;28;20043;-72
2022/01/22 14:53:20;;;;;;;15.10;2.60;;;7.00;99.90;;;;;;5083235;28;20028;-71
2022/01/22 14:55:57;;;;;;;14.43;2.80;;;7.00;99.90;;;;;;5068737;28;20128;-71
2022/01/22 14:58:22;;;;;;;10.98;2.65;;;7.00;99.90;;;;;;5063454;28;20036;-71
2022/01/22 15:00:48;;;;;;;16.98;3.92;;;7.00;99.90;;;;;;5053962;28;20036;-72